Time;durP1;ratioP1;P1;durP2;ratioP2;P2;SDS_P1;SDS_P2;PMS_P1;PMS_P2;Temp;Humidity;BMP_temperature;BMP_pressure;BME280_temperature;BME280_humidity;BME280_pressure;Samples;Min_cycle;Max_cycle;Signal;HPM_P1;HPM_P2
2023/03/18 00:00:19;;;;;;;11.85;4.60;;;10.80;99.90;;;;;;5025051;28;20131;-60
2023/03/18 00:02:46;;;;;;;11.35;4.60;;;10.80;99.90;;;;;;5020750;28;20060;-60
2023/03/18 00:05:13;;;;;;;17.83;5.28;;;10.80;99.90;;;;;;5012573;28;20092;-60
2023/03/18 00:07:41;;;;;;;12.52;4.47;;;10.70;99.90;;;;;;5015020;28;20046;-59
2023/03/18 00:10:09;;;;;;;7.95;4.65;;;10.70;99.90;;;;;;5018098;28;20099;-60
2023/03/18 00:12:37;;;;;;;12.57;4.72;;;10.70;99.90;;;;;;5014409;28;20065;-63
2023/03/18 00:15:06;;;;;;;15.60;4.38;;;10.70;99.90;;;;;;5001802;28;20467;-60
2023/03/18 00:17:34;;;;;;;6.45;4.28;;;10.70;99.90;;;;;;5002559;28;20046;-58
2023/03/18 00:20:04;;;;;;;16.40;4.63;;;10.70;99.90;;;;;;5018468;28;20061;-58
2023/03/18 00:22:32;;;;;;;17.45;4.32;;;10.70;99.90;;;;;;5013020;28;20053;-59
2023/03/18 00:25:00;;;;;;;10.77;4.00;;;10.70;99.90;;;;;;5016439;28;20470;-60
2023/03/18 00:27:27;;;;;;;14.65;4.75;;;10.70;99.90;;;;;;5023638;28;20419;-60
2023/03/18 00:29:55;;;;;;;11.10;4.30;;;10.70;99.90;;;;;;5018765;28;20050;-59
2023/03/18 00:32:22;;;;;;;13.77;4.32;;;10.60;99.90;;;;;;4992852;28;20050;-60
2023/03/18 00:34:49;;;;;;;12.07;5.10;;;10.60;99.90;;;;;;5019698;28;20112;-59
2023/03/18 00:37:28;;;;;;;7.38;4.20;;;10.60;99.90;;;;;;5010330;28;20417;-58
2023/03/18 00:39:58;;;;;;;9.50;3.60;;;10.50;99.90;;;;;;5014874;28;20057;-60
2023/03/18 00:42:25;;;;;;;16.33;5.68;;;10.50;99.90;;;;;;5024217;28;20095;-59
2023/03/18 00:44:52;;;;;;;14.35;4.25;;;10.40;99.90;;;;;;5021638;28;20477;-60
2023/03/18 00:47:19;;;;;;;12.45;4.38;;;10.40;99.90;;;;;;5009800;28;20041;-60
2023/03/18 00:49:47;;;;;;;18.58;4.72;;;10.30;99.90;;;;;;5011669;28;20056;-59
2023/03/18 00:52:13;;;;;;;14.70;5.43;;;10.30;99.90;;;;;;5026474;28;20049;-60
2023/03/18 00:54:40;;;;;;;10.45;4.03;;;10.30;99.90;;;;;;5024370;28;20115;-59
2023/03/18 00:57:07;;;;;;;17.33;6.30;;;10.20;99.90;;;;;;5014715;28;20501;-59
2023/03/18 00:59:34;;;;;;;10.35;3.53;;;10.20;99.90;;;;;;5021151;28;20087;-60
2023/03/18 01:02:01;;;;;;;8.68;3.50;;;10.20;99.90;;;;;;5016837;28;20050;-60
2023/03/18 01:04:28;;;;;;;10.85;3.22;;;10.20;99.90;;;;;;5019606;28;20489;-60
2023/03/18 01:06:55;;;;;;;14.60;3.83;;;10.20;99.90;;;;;;5031105;28;20519;-60
2023/03/18 01:09:22;;;;;;;11.77;3.72;;;10.20;99.90;;;;;;5004827;28;20696;-59
2023/03/18 01:11:49;;;;;;;13.13;4.65;;;10.20;99.90;;;;;;5020728;28;20049;-60
2023/03/18 01:14:16;;;;;;;14.88;3.85;;;10.20;99.90;;;;;;5023265;28;20489;-58
2023/03/18 01:16:43;;;;;;;10.77;3.75;;;10.20;99.90;;;;;;5014843;28;20050;-58
2023/03/18 01:19:10;;;;;;;9.82;3.65;;;10.10;99.90;;;;;;5014230;28;20339;-58
2023/03/18 01:21:37;;;;;;;13.25;4.43;;;10.10;99.90;;;;;;5016327;28;20050;-58
2023/03/18 01:24:04;;;;;;;10.57;4.03;;;10.10;99.90;;;;;;5022077;28;20041;-58
2023/03/18 01:26:31;;;;;;;14.18;3.50;;;10.10;99.90;;;;;;5018322;28;20063;-57
2023/03/18 01:28:58;;;;;;;13.95;3.70;;;10.00;99.90;;;;;;5008720;28;20108;-57
2023/03/18 01:31:25;;;;;;;8.95;4.10;;;10.10;99.90;;;;;;5016027;28;20580;-57
2023/03/18 01:33:52;;;;;;;13.10;3.53;;;10.00;99.90;;;;;;5010741;28;20045;-59
2023/03/18 01:36:18;;;;;;;26.10;4.47;;;10.00;99.90;;;;;;5016383;28;20416;-59
2023/03/18 01:38:45;;;;;;;6.57;3.55;;;10.00;99.90;;;;;;4996509;28;20149;-57
2023/03/18 01:41:12;;;;;;;7.20;3.45;;;9.90;99.90;;;;;;5016195;28;20256;-59
2023/03/18 01:43:40;;;;;;;8.83;3.50;;;9.90;99.90;;;;;;4679737;28;9999856;-58
2023/03/18 01:46:31;;;;;;;11.90;3.72;;;9.90;99.90;;;;;;5017788;28;20509;-59
2023/03/18 01:48:59;;;;;;;16.17;4.10;;;10.00;99.90;;;;;;5029444;28;20149;-60
2023/03/18 01:51:26;;;;;;;12.30;3.83;;;9.90;99.90;;;;;;5006459;28;20080;-58
2023/03/18 01:53:52;;;;;;;17.08;3.58;;;9.90;99.90;;;;;;5013483;28;20128;-59
2023/03/18 01:56:19;;;;;;;9.70;3.25;;;10.00;99.90;;;;;;5006808;28;20045;-59
2023/03/18 01:58:50;;;;;;;19.75;3.55;;;9.90;99.90;;;;;;5011189;28;20087;-59
2023/03/18 02:01:45;;;;;;;10.05;3.53;;;10.00;99.90;;;;;;5002563;28;20119;-58
2023/03/18 02:04:12;;;;;;;17.20;3.65;;;10.00;99.90;;;;;;5003971;28;20088;-60
2023/03/18 02:06:39;;;;;;;10.80;3.53;;;10.10;99.90;;;;;;5001013;28;20057;-59
2023/03/18 02:09:05;;;;;;;15.38;5.38;;;10.20;99.90;;;;;;5029972;28;20056;-59
2023/03/18 02:11:35;;;;;;;16.75;3.85;;;10.20;99.90;;;;;;5022058;28;20377;-59
2023/03/18 02:14:02;;;;;;;12.13;4.72;;;10.20;99.90;;;;;;5012630;28;20042;-59
2023/03/18 02:16:40;;;;;;;12.15;3.95;;;10.30;99.90;;;;;;5001554;28;20567;-59
2023/03/18 02:19:24;;;;;;;9.50;4.28;;;10.30;99.90;;;;;;4998068;28;20457;-58
2023/03/18 02:22:04;;;;;;;13.32;4.57;;;10.30;99.90;;;;;;4999159;28;20411;-59
2023/03/18 02:25:06;;;;;;;10.13;4.65;;;10.30;99.90;;;;;;4996903;28;20126;-60
2023/03/18 02:27:34;;;;;;;10.93;4.43;;;10.30;99.90;;;;;;5003220;28;20065;-59
2023/03/18 02:30:13;;;;;;;12.52;5.95;;;10.30;99.90;;;;;;5008780;28;20129;-59
2023/03/18 02:32:40;;;;;;;11.30;5.45;;;10.30;99.90;;;;;;5002393;28;20061;-58
2023/03/18 02:35:08;;;;;;;17.85;6.47;;;10.30;99.90;;;;;;5008449;28;20057;-58
2023/03/18 02:37:35;;;;;;;9.43;5.03;;;10.30;99.90;;;;;;4998376;28;20056;-59
2023/03/18 02:40:34;;;;;;;10.43;4.53;;;10.30;99.90;;;;;;5009862;28;20480;-60
2023/03/18 02:43:29;;;;;;;12.30;5.30;;;10.40;99.90;;;;;;4996094;28;20412;-59
2023/03/18 02:46:20;;;;;;;14.23;5.38;;;10.40;99.90;;;;;;4991979;28;20520;-59
2023/03/18 02:48:47;;;;;;;14.13;4.78;;;10.50;99.90;;;;;;5004155;28;20548;-59
2023/03/18 02:51:15;;;;;;;18.30;5.85;;;10.50;99.90;;;;;;4990573;28;20054;-60
2023/03/18 02:53:42;;;;;;;18.42;5.88;;;10.50;99.90;;;;;;5004596;28;20129;-60
2023/03/18 02:56:09;;;;;;;15.50;5.20;;;10.50;99.90;;;;;;4993056;28;20568;-59
2023/03/18 02:58:35;;;;;;;11.70;4.65;;;10.50;99.90;;;;;;5002261;28;20578;-60
2023/03/18 03:01:04;;;;;;;15.27;5.88;;;10.50;99.90;;;;;;5002147;28;20081;-60
2023/03/18 03:03:30;;;;;;;20.58;7.53;;;10.50;99.90;;;;;;5000408;28;20092;-59
2023/03/18 03:05:57;;;;;;;18.25;5.28;;;10.50;99.90;;;;;;5008923;28;20049;-58
2023/03/18 03:08:24;;;;;;;14.95;4.72;;;10.60;99.90;;;;;;4999627;28;20084;-62
2023/03/18 03:10:51;;;;;;;16.52;4.72;;;10.50;99.90;;;;;;5000625;28;20059;-58
2023/03/18 03:13:18;;;;;;;14.15;4.50;;;10.50;99.90;;;;;;5001334;28;20451;-58
2023/03/18 03:15:45;;;;;;;13.32;5.00;;;10.50;99.90;;;;;;4996138;28;20052;-59
2023/03/18 03:18:12;;;;;;;16.20;5.10;;;10.40;99.90;;;;;;5000986;28;20042;-58
2023/03/18 03:20:39;;;;;;;16.13;4.93;;;10.40;99.90;;;;;;4998121;28;20575;-58
2023/03/18 03:23:06;;;;;;;16.10;4.97;;;10.40;99.90;;;;;;5005903;28;20385;-58
2023/03/18 03:25:34;;;;;;;12.25;5.68;;;10.40;99.90;;;;;;5005617;28;20042;-58
2023/03/18 03:28:01;;;;;;;19.10;5.00;;;10.40;99.90;;;;;;5003661;28;20118;-59
2023/03/18 03:30:28;;;;;;;13.30;4.70;;;10.50;99.90;;;;;;4995293;28;20062;-59
2023/03/18 03:32:55;;;;;;;11.60;5.10;;;10.40;99.90;;;;;;5005026;28;20493;-58
2023/03/18 03:35:23;;;;;;;16.50;4.07;;;10.50;99.90;;;;;;5003654;28;20104;-58
2023/03/18 03:37:50;;;;;;;14.65;5.15;;;10.50;99.90;;;;;;4995019;28;20093;-58
2023/03/18 03:40:17;;;;;;;10.95;4.22;;;10.50;99.90;;;;;;5001630;28;20477;-58
2023/03/18 03:42:44;;;;;;;14.00;4.10;;;10.50;99.90;;;;;;5007279;28;20101;-59
2023/03/18 03:45:12;;;;;;;15.50;4.40;;;10.40;99.90;;;;;;5001005;28;20077;-58
2023/03/18 03:47:40;;;;;;;31.98;5.30;;;10.40;99.90;;;;;;4998376;28;20489;-59
2023/03/18 03:50:09;;;;;;;14.70;5.07;;;10.40;99.90;;;;;;4998772;28;20101;-58
2023/03/18 03:52:37;;;;;;;16.33;4.78;;;10.30;99.90;;;;;;5001078;28;20068;-58
2023/03/18 03:55:08;;;;;;;15.65;5.40;;;10.30;99.90;;;;;;4999267;28;20081;-58
2023/03/18 03:57:35;;;;;;;16.02;4.85;;;10.30;99.90;;;;;;5005109;28;20099;-59
2023/03/18 04:00:04;;;;;;;13.05;4.32;;;10.30;99.90;;;;;;4998172;28;20042;-57
2023/03/18 04:02:31;;;;;;;10.43;4.38;;;10.30;99.90;;;;;;4997715;28;20056;-59
2023/03/18 04:04:58;;;;;;;13.15;4.38;;;10.30;99.90;;;;;;4998128;28;20125;-59
2023/03/18 04:07:25;;;;;;;19.35;4.80;;;10.30;99.90;;;;;;5015222;28;20086;-59
2023/03/18 04:09:54;;;;;;;14.63;4.20;;;10.30;99.90;;;;;;4999852;28;20056;-58
2023/03/18 04:12:21;;;;;;;11.82;5.35;;;10.30;99.90;;;;;;5005358;28;20046;-59
2023/03/18 04:14:48;;;;;;;8.93;4.80;;;10.40;99.90;;;;;;5004921;28;20048;-59
2023/03/18 04:17:17;;;;;;;14.73;5.18;;;10.40;99.90;;;;;;4994923;28;20057;-59
2023/03/18 04:19:44;;;;;;;11.73;4.50;;;10.50;99.90;;;;;;5005175;28;20570;-59
2023/03/18 04:22:11;;;;;;;19.35;5.03;;;10.50;99.90;;;;;;5001698;28;20046;-60
2023/03/18 04:24:38;;;;;;;12.75;4.30;;;10.60;99.90;;;;;;5004159;28;20133;-58
2023/03/18 04:27:05;;;;;;;22.42;5.22;;;10.60;99.90;;;;;;5001556;28;20050;-60
2023/03/18 04:29:32;;;;;;;14.48;5.85;;;10.50;99.90;;;;;;4990211;28;20293;-59
2023/03/18 04:31:59;;;;;;;12.70;5.00;;;10.50;99.90;;;;;;4997843;28;20050;-59
2023/03/18 04:34:26;;;;;;;14.48;5.13;;;10.50;99.90;;;;;;5005013;28;20050;-59
2023/03/18 04:36:54;;;;;;;14.50;4.32;;;10.60;99.90;;;;;;5000527;28;20096;-60
2023/03/18 04:39:21;;;;;;;13.70;4.75;;;10.60;99.90;;;;;;4993073;28;20497;-58
2023/03/18 04:41:48;;;;;;;16.48;4.50;;;10.70;99.90;;;;;;4998227;28;20050;-60
2023/03/18 04:44:16;;;;;;;19.00;6.85;;;10.60;99.90;;;;;;5008068;28;20049;-59
2023/03/18 04:46:43;;;;;;;15.02;4.20;;;10.70;99.90;;;;;;4998963;28;20046;-59
2023/03/18 04:49:10;;;;;;;16.95;4.93;;;10.70;99.90;;;;;;4997950;28;20089;-60
2023/03/18 04:51:38;;;;;;;13.23;4.28;;;10.70;99.90;;;;;;4999335;28;20073;-59
2023/03/18 04:54:05;;;;;;;10.93;5.35;;;10.70;99.90;;;;;;4997428;28;20129;-60
2023/03/18 04:56:32;;;;;;;19.25;5.10;;;10.70;99.90;;;;;;5002966;28;20332;-59
2023/03/18 04:59:00;;;;;;;15.13;5.00;;;10.80;99.90;;;;;;4998131;28;20051;-59
2023/03/18 05:01:27;;;;;;;14.68;4.40;;;10.80;99.90;;;;;;4993440;28;20142;-59
2023/03/18 05:03:53;;;;;;;18.48;4.35;;;10.80;99.90;;;;;;4996122;28;20072;-59
2023/03/18 05:06:22;;;;;;;10.77;4.18;;;10.80;99.90;;;;;;5004919;28;20056;-60
2023/03/18 05:08:50;;;;;;;10.05;2.72;;;10.80;99.90;;;;;;4995129;28;20050;-59
2023/03/18 05:11:17;;;;;;;10.50;4.07;;;10.80;99.90;;;;;;5003209;28;20090;-58
2023/03/18 05:13:47;;;;;;;13.50;4.15;;;10.80;99.90;;;;;;4994721;28;20516;-61
2023/03/18 05:16:14;;;;;;;9.13;3.22;;;10.80;99.90;;;;;;5015777;28;20042;-59
2023/03/18 05:18:41;;;;;;;15.27;3.97;;;10.90;99.90;;;;;;4996868;28;20072;-61
2023/03/18 05:21:09;;;;;;;8.55;4.00;;;10.90;99.90;;;;;;5024892;28;20512;-60
2023/03/18 05:23:36;;;;;;;12.68;3.72;;;10.90;99.90;;;;;;5019466;28;20043;-59
2023/03/18 05:26:04;;;;;;;8.63;3.90;;;10.90;99.90;;;;;;5008470;28;20056;-59
2023/03/18 05:28:40;;;;;;;14.52;3.85;;;10.90;99.90;;;;;;5015713;28;20049;-59
2023/03/18 05:31:07;;;;;;;16.58;3.88;;;10.90;99.90;;;;;;5006064;28;20049;-58
2023/03/18 05:33:37;;;;;;;10.02;4.65;;;10.90;99.90;;;;;;5014378;28;20129;-59
2023/03/18 05:36:05;;;;;;;13.00;4.07;;;10.90;99.90;;;;;;5012122;28;20050;-59
2023/03/18 05:38:34;;;;;;;12.13;4.15;;;10.90;99.90;;;;;;5014476;28;20052;-58
2023/03/18 05:41:04;;;;;;;15.10;4.75;;;10.90;99.90;;;;;;5021492;28;20488;-59
2023/03/18 05:43:31;;;;;;;12.07;4.20;;;10.90;99.90;;;;;;5003306;28;20079;-58
2023/03/18 05:45:58;;;;;;;14.52;5.20;;;10.90;99.90;;;;;;5019868;28;20256;-58
2023/03/18 05:48:25;;;;;;;11.30;3.95;;;10.90;99.90;;;;;;5022065;28;20296;-59
2023/03/18 05:50:53;;;;;;;13.65;4.70;;;10.90;99.90;;;;;;5018481;28;20269;-60
2023/03/18 05:53:20;;;;;;;15.95;4.78;;;10.90;99.90;;;;;;5004617;28;20056;-60
2023/03/18 05:55:48;;;;;;;10.63;5.88;;;10.90;99.90;;;;;;5004844;28;20076;-60
2023/03/18 05:58:14;;;;;;;11.77;4.20;;;10.90;99.90;;;;;;5007668;28;20045;-60
2023/03/18 06:00:42;;;;;;;11.57;4.03;;;10.90;99.90;;;;;;5017138;28;20393;-59
2023/03/18 06:03:09;;;;;;;12.13;4.03;;;10.90;99.90;;;;;;5026212;28;20054;-59
2023/03/18 06:05:35;;;;;;;12.32;4.60;;;10.80;99.90;;;;;;5005614;28;20133;-59
2023/03/18 06:08:02;;;;;;;21.83;6.22;;;10.80;99.90;;;;;;5001662;28;20057;-60
2023/03/18 06:10:30;;;;;;;14.57;4.97;;;10.80;99.90;;;;;;4996302;28;20105;-60
2023/03/18 06:12:56;;;;;;;11.43;4.60;;;10.80;99.90;;;;;;5027252;28;20502;-60
2023/03/18 06:15:24;;;;;;;11.90;4.30;;;10.80;99.90;;;;;;4975470;28;1139113;-60
2023/03/18 06:17:51;;;;;;;12.35;3.50;;;10.80;99.90;;;;;;5026876;28;20111;-59
2023/03/18 06:20:18;;;;;;;19.85;5.55;;;10.80;99.90;;;;;;5022456;28;20133;-59
2023/03/18 06:22:48;;;;;;;11.45;5.78;;;10.80;99.90;;;;;;5011661;28;20405;-59
2023/03/18 06:25:17;;;;;;;9.38;3.47;;;10.80;99.90;;;;;;5016088;28;20044;-59
2023/03/18 06:27:45;;;;;;;11.07;3.35;;;10.80;99.90;;;;;;5023109;28;20045;-60
2023/03/18 06:30:15;;;;;;;11.82;3.65;;;10.70;99.90;;;;;;5023217;28;20053;-60
2023/03/18 06:32:42;;;;;;;7.13;3.05;;;10.70;99.90;;;;;;5018152;28;20081;-59
2023/03/18 06:35:09;;;;;;;13.18;3.05;;;10.70;99.90;;;;;;4999887;28;20041;-61
2023/03/18 06:37:37;;;;;;;10.52;3.00;;;10.70;99.90;;;;;;5011124;28;20488;-59
2023/03/18 06:40:04;;;;;;;14.70;3.30;;;10.70;99.90;;;;;;5015886;28;20289;-60
2023/03/18 06:42:32;;;;;;;12.30;3.17;;;10.70;99.90;;;;;;5019376;28;20050;-60
2023/03/18 06:45:00;;;;;;;13.45;2.78;;;10.70;99.90;;;;;;5026526;28;20140;-60
2023/03/18 06:47:27;;;;;;;11.60;2.38;;;10.70;99.90;;;;;;5026305;28;20472;-58
2023/03/18 06:49:55;;;;;;;12.90;3.08;;;10.80;99.90;;;;;;5005132;28;20060;-62
2023/03/18 06:52:22;;;;;;;9.10;2.20;;;10.80;99.90;;;;;;5023071;28;20049;-60
2023/03/18 06:54:49;;;;;;;7.65;2.17;;;10.80;99.90;;;;;;5007494;28;20576;-59
2023/03/18 06:57:16;;;;;;;11.88;2.60;;;10.80;99.90;;;;;;5007333;28;20050;-59
2023/03/18 06:59:46;;;;;;;5.03;1.98;;;10.80;99.90;;;;;;5011851;28;20532;-59
2023/03/18 07:02:14;;;;;;;12.48;3.13;;;10.80;99.90;;;;;;5022077;28;20041;-60
2023/03/18 07:04:42;;;;;;;13.65;2.50;;;10.80;99.90;;;;;;5027149;28;20115;-60
2023/03/18 07:07:09;;;;;;;5.75;2.20;;;10.80;99.90;;;;;;5005659;28;20045;-60
2023/03/18 07:09:38;;;;;;;8.18;2.60;;;10.80;99.90;;;;;;5028032;28;20281;-59
2023/03/18 07:12:05;;;;;;;13.30;2.65;;;10.80;99.90;;;;;;5020610;28;20082;-59
2023/03/18 07:14:33;;;;;;;10.73;2.80;;;10.80;99.90;;;;;;5011377;28;20197;-58
2023/03/18 07:17:01;;;;;;;10.40;3.25;;;10.80;99.90;;;;;;5021387;28;20473;-60
2023/03/18 07:19:27;;;;;;;10.10;2.88;;;10.80;99.90;;;;;;5029479;28;20041;-59
2023/03/18 07:21:55;;;;;;;10.15;2.40;;;10.80;99.90;;;;;;5020604;28;20041;-58
2023/03/18 07:24:25;;;;;;;9.50;3.00;;;10.80;99.90;;;;;;4998878;28;20211;-60
2023/03/18 07:26:52;;;;;;;11.65;2.92;;;10.90;99.90;;;;;;5020531;28;20141;-59
2023/03/18 07:29:19;;;;;;;5.07;2.55;;;10.90;99.90;;;;;;5026185;28;20053;-59
2023/03/18 07:31:46;;;;;;;8.48;2.33;;;10.90;99.90;;;;;;5005489;28;20050;-59
2023/03/18 07:34:13;;;;;;;7.90;2.30;;;10.90;99.90;;;;;;5016092;28;20075;-59
2023/03/18 07:36:41;;;;;;;5.97;2.65;;;10.90;99.90;;;;;;5024943;28;20041;-60
2023/03/18 07:39:11;;;;;;;9.63;3.72;;;10.80;99.90;;;;;;5019984;28;20143;-59
2023/03/18 07:41:38;;;;;;;10.32;2.95;;;10.80;99.90;;;;;;5012956;28;20052;-60
2023/03/18 07:44:06;;;;;;;5.72;2.63;;;10.80;99.90;;;;;;5014460;28;20045;-59
2023/03/18 07:46:33;;;;;;;11.82;3.20;;;10.70;99.90;;;;;;5011540;28;20045;-59
2023/03/18 07:49:01;;;;;;;7.30;2.38;;;10.70;99.90;;;;;;5005084;28;20115;-60
2023/03/18 07:51:28;;;;;;;8.40;3.13;;;10.70;99.90;;;;;;4992850;28;20599;-60
2023/03/18 07:53:57;;;;;;;6.57;3.17;;;10.60;99.90;;;;;;5013221;28;20089;-59
2023/03/18 07:56:24;;;;;;;7.93;2.42;;;10.50;99.90;;;;;;5026171;28;20052;-58
2023/03/18 07:58:51;;;;;;;5.65;2.65;;;10.50;99.90;;;;;;4996553;28;20056;-57
2023/03/18 08:01:21;;;;;;;9.82;2.55;;;10.50;99.90;;;;;;5024700;28;20119;-57
2023/03/18 08:03:49;;;;;;;4.85;1.80;;;10.50;99.90;;;;;;5021381;28;20053;-59
2023/03/18 08:06:19;;;;;;;8.32;2.00;;;10.50;99.90;;;;;;5013911;28;20046;-61
2023/03/18 08:08:46;;;;;;;5.70;1.40;;;10.50;99.90;;;;;;4989995;28;20045;-59
2023/03/18 08:11:14;;;;;;;5.45;1.33;;;10.50;99.90;;;;;;5014969;28;20452;-57
2023/03/18 08:13:41;;;;;;;9.57;2.38;;;10.50;99.90;;;;;;5020207;28;20484;-60
2023/03/18 08:16:11;;;;;;;5.90;1.80;;;10.40;99.90;;;;;;5014549;28;20085;-61
2023/03/18 08:18:38;;;;;;;5.10;1.52;;;10.40;99.90;;;;;;4669072;28;10000215;-57
2023/03/18 08:21:06;;;;;;;5.55;1.52;;;10.40;99.90;;;;;;5024563;28;20056;-59
2023/03/18 08:23:34;;;;;;;4.05;1.40;;;10.40;99.90;;;;;;5020586;28;20056;-57
2023/03/18 08:26:04;;;;;;;3.30;1.15;;;10.40;99.90;;;;;;5014039;28;20091;-60
2023/03/18 08:28:31;;;;;;;2.22;1.35;;;10.40;99.90;;;;;;5020148;28;20050;-58
2023/03/18 08:30:58;;;;;;;3.22;1.13;;;10.40;99.90;;;;;;5016836;28;20050;-57
2023/03/18 08:33:28;;;;;;;5.47;1.35;;;10.40;99.90;;;;;;4991733;28;20064;-58
2023/03/18 08:35:56;;;;;;;8.05;1.27;;;10.50;99.90;;;;;;5013322;28;20484;-56
2023/03/18 08:38:23;;;;;;;5.25;0.93;;;10.50;99.90;;;;;;5007883;28;20485;-58
2023/03/18 08:40:51;;;;;;;5.20;0.98;;;10.60;99.90;;;;;;4994398;28;20168;-59
2023/03/18 08:43:20;;;;;;;4.45;1.52;;;10.60;99.90;;;;;;5022578;28;20045;-59
2023/03/18 08:45:52;;;;;;;3.25;1.25;;;10.60;99.90;;;;;;5019763;28;20060;-59
2023/03/18 08:48:20;;;;;;;8.23;1.20;;;10.60;99.90;;;;;;5007274;28;20137;-57
2023/03/18 08:50:47;;;;;;;3.22;1.00;;;10.70;99.90;;;;;;5010368;28;20045;-60
2023/03/18 08:53:14;;;;;;;1.85;0.80;;;10.70;99.90;;;;;;5004591;28;20451;-59
2023/03/18 08:55:42;;;;;;;5.43;1.20;;;10.60;99.90;;;;;;5020205;28;20045;-62
2023/03/18 08:58:09;;;;;;;11.77;1.60;;;10.70;99.90;;;;;;5008381;28;20046;-60
2023/03/18 09:00:38;;;;;;;6.00;1.05;;;10.70;99.90;;;;;;4999465;28;20052;-58
2023/03/18 09:03:04;;;;;;;3.30;1.10;;;10.70;99.90;;;;;;5009985;28;20054;-59
2023/03/18 09:05:31;;;;;;;7.10;1.13;;;10.80;99.90;;;;;;5012030;28;20100;-60
2023/03/18 09:07:59;;;;;;;2.17;1.10;;;10.80;99.90;;;;;;5016728;28;20080;-58
2023/03/18 09:10:26;;;;;;;4.15;1.45;;;10.90;99.90;;;;;;5011878;28;20067;-60
2023/03/18 09:12:53;;;;;;;6.00;1.92;;;11.00;99.90;;;;;;5015402;28;20057;-59
2023/03/18 09:15:19;;;;;;;2.50;1.15;;;11.00;99.90;;;;;;5021729;28;20053;-59
2023/03/18 09:17:47;;;;;;;8.15;1.95;;;11.10;99.90;;;;;;5027630;28;20319;-60
2023/03/18 09:20:34;;;;;;;4.75;1.75;;;11.10;99.90;;;;;;5015209;28;20161;-59
2023/03/18 09:23:01;;;;;;;3.67;1.10;;;11.10;99.90;;;;;;5017479;28;20061;-58
2023/03/18 09:25:28;;;;;;;5.50;1.15;;;11.20;99.90;;;;;;5023391;28;20050;-59
2023/03/18 09:27:56;;;;;;;2.95;1.35;;;11.10;99.90;;;;;;5019841;28;20157;-60
2023/03/18 09:30:25;;;;;;;4.38;1.38;;;11.10;99.90;;;;;;5014977;28;20042;-59
2023/03/18 09:32:53;;;;;;;2.95;1.15;;;11.10;99.90;;;;;;5016212;28;20084;-60
2023/03/18 09:35:20;;;;;;;2.38;1.08;;;11.20;99.90;;;;;;5022891;28;20046;-60
2023/03/18 09:37:48;;;;;;;6.70;0.90;;;11.10;99.90;;;;;;5015233;28;20464;-60
2023/03/18 09:40:32;;;;;;;4.88;1.20;;;11.10;99.90;;;;;;4991020;28;20041;-60
2023/03/18 09:43:02;;;;;;;;;;;11.10;99.90;;;;;;5007275;28;20061;-57
2023/03/18 09:45:51;;;;;;;4.05;1.08;;;11.20;99.90;;;;;;5024352;28;19980;-58
2023/03/18 09:48:33;;;;;;;5.22;1.20;;;11.20;99.90;;;;;;5005095;28;20042;-57
2023/03/18 09:51:18;;;;;;;2.80;1.20;;;11.30;99.90;;;;;;5019755;28;20107;-58
2023/03/18 09:53:51;;;;;;;1.52;1.10;;;11.30;99.90;;;;;;5016418;28;20412;-58
2023/03/18 09:56:21;;;;;;;5.80;1.20;;;11.30;99.90;;;;;;5002623;28;20408;-57
2023/03/18 09:59:16;;;;;;;2.03;1.15;;;11.30;99.90;;;;;;4998957;28;20476;-59
2023/03/18 10:01:43;;;;;;;;;;;11.30;99.90;;;;;;5019590;28;20769;-59
2023/03/18 10:04:17;;;;;;;5.75;1.67;;;11.30;99.90;;;;;;5001267;28;20309;-59
2023/03/18 10:06:44;;;;;;;5.50;2.15;;;11.40;99.90;;;;;;5005611;28;20049;-58
2023/03/18 10:09:30;;;;;;;1.95;1.05;;;11.40;99.90;;;;;;5001322;28;20501;-58
2023/03/18 10:12:22;;;;;;;2.05;1.10;;;11.50;99.90;;;;;;4985752;28;20283;-58
2023/03/18 10:15:18;;;;;;;3.85;0.90;;;11.50;99.90;;;;;;5014240;28;20049;-57
2023/03/18 10:18:21;;;;;;;2.70;1.40;;;11.50;99.90;;;;;;5020606;28;20049;-57
2023/03/18 10:21:07;;;;;;;2.95;1.00;;;11.50;99.90;;;;;;4998121;28;20286;-58
2023/03/18 10:23:49;;;;;;;2.47;1.02;;;11.60;99.90;;;;;;5015698;28;20049;-59
2023/03/18 10:26:33;;;;;;;2.88;1.50;;;11.60;99.90;;;;;;5004886;28;20045;-59
2023/03/18 10:29:07;;;;;;;2.80;0.90;;;11.70;99.90;;;;;;5001265;28;20136;-56
2023/03/18 10:31:55;;;;;;;2.03;1.05;;;11.60;99.90;;;;;;5017105;28;20069;-57
2023/03/18 10:34:24;;;;;;;7.13;1.70;;;11.60;99.90;;;;;;5015889;28;20077;-56
2023/03/18 10:37:00;;;;;;;2.95;1.17;;;11.60;99.90;;;;;;4998989;28;20057;-56
2023/03/18 10:39:27;;;;;;;3.47;1.08;;;11.70;99.90;;;;;;5002236;28;20073;-58
2023/03/18 10:41:54;;;;;;;2.38;0.90;;;11.70;99.90;;;;;;5000213;28;20133;-57
2023/03/18 10:44:35;;;;;;;2.10;1.27;;;11.70;99.90;;;;;;4999798;28;20172;-57
2023/03/18 10:47:14;;;;;;;1.60;0.93;;;11.70;99.90;;;;;;4999783;28;20436;-59
2023/03/18 10:49:49;;;;;;;2.17;0.88;;;11.80;99.90;;;;;;5020547;28;20111;-58
2023/03/18 10:52:20;;;;;;;0.98;0.60;;;11.70;99.90;;;;;;4995170;28;20533;-57
2023/03/18 10:54:51;;;;;;;1.35;0.85;;;11.70;99.90;;;;;;4998308;28;20104;-57
2023/03/18 10:57:20;;;;;;;2.30;0.73;;;11.80;99.90;;;;;;5017657;28;20049;-57
2023/03/18 10:59:48;;;;;;;1.80;0.93;;;11.80;99.90;;;;;;5018779;28;20184;-57
2023/03/18 11:02:35;;;;;;;0.60;0.60;;;11.80;99.90;;;;;;4992786;28;20119;-57
2023/03/18 11:05:04;;;;;;;2.92;1.00;;;11.70;99.90;;;;;;5016115;28;20099;-57
2023/03/18 11:07:31;;;;;;;3.00;1.05;;;11.80;99.90;;;;;;4992370;28;20262;-58
2023/03/18 11:10:17;;;;;;;2.90;1.55;;;11.90;99.90;;;;;;5018177;28;20394;-57
2023/03/18 11:12:44;;;;;;;3.50;0.98;;;12.10;99.90;;;;;;5023442;28;20049;-58
2023/03/18 11:15:11;;;;;;;1.15;0.90;;;12.20;99.90;;;;;;5020900;28;20132;-58
2023/03/18 11:17:39;;;;;;;1.85;0.90;;;12.20;99.90;;;;;;5021207;28;20133;-57
2023/03/18 11:20:15;;;;;;;2.20;0.73;;;12.20;99.90;;;;;;5021070;28;20576;-55
2023/03/18 11:22:47;;;;;;;1.50;0.80;;;12.30;99.90;;;;;;5021714;28;20049;-55
2023/03/18 11:25:22;;;;;;;2.80;0.63;;;12.20;99.90;;;;;;5015172;28;20042;-59
2023/03/18 11:27:57;;;;;;;2.38;0.90;;;12.10;99.90;;;;;;5017472;28;20054;-54
2023/03/18 11:30:25;;;;;;;1.58;0.70;;;12.10;99.90;;;;;;5017519;28;20053;-52
2023/03/18 11:33:09;;;;;;;1.98;0.65;;;12.30;99.90;;;;;;5025048;28;20049;-59
2023/03/18 11:35:49;;;;;;;1.40;0.50;;;12.50;99.90;;;;;;5014814;28;20052;-59
2023/03/18 11:38:19;;;;;;;1.58;0.50;;;12.50;99.90;;;;;;5018289;28;20050;-59
2023/03/18 11:40:46;;;;;;;0.90;0.60;;;12.50;99.90;;;;;;5020323;28;20175;-60
2023/03/18 11:43:16;;;;;;;1.40;0.60;;;12.50;99.90;;;;;;5014734;28;20070;-60
2023/03/18 11:46:00;;;;;;;1.17;0.82;;;12.60;99.90;;;;;;5018379;28;20053;-57
2023/03/18 11:48:31;;;;;;;2.95;0.50;;;12.60;99.90;;;;;;5000943;28;20132;-58
2023/03/18 11:51:06;;;;;;;1.52;0.57;;;12.70;99.90;;;;;;4995733;28;20167;-57
2023/03/18 11:53:42;;;;;;;1.17;0.50;;;12.80;99.90;;;;;;5017405;28;20037;-57
2023/03/18 11:56:30;;;;;;;1.05;0.40;;;12.90;99.90;;;;;;4996624;28;20046;-59
2023/03/18 11:59:05;;;;;;;3.92;0.65;;;13.00;99.90;;;;;;5019254;28;20053;-56
2023/03/18 12:01:54;;;;;;;0.88;0.47;;;13.20;99.90;;;;;;5015364;28;20073;-57
2023/03/18 12:05:00;;;;;;;0.68;0.47;;;13.30;99.90;;;;;;5015861;28;20049;-58
2023/03/18 12:07:55;;;;;;;2.72;0.30;;;13.20;99.90;;;;;;4989430;28;20054;-59
2023/03/18 12:10:23;;;;;;;;;;;13.20;99.90;;;;;;5014402;28;20096;-59
2023/03/18 12:13:08;;;;;;;0.65;0.43;;;13.20;99.90;;;;;;5012285;28;20403;-57
2023/03/18 12:15:53;;;;;;;0.70;0.30;;;13.30;99.90;;;;;;5019916;28;20561;-58
2023/03/18 12:18:44;;;;;;;0.80;0.50;;;13.20;99.90;;;;;;5017780;28;20081;-59
2023/03/18 12:21:36;;;;;;;2.33;1.05;;;13.20;99.90;;;;;;5012160;28;20150;-58
2023/03/18 12:24:32;;;;;;;2.63;0.60;;;13.20;99.90;;;;;;4994190;28;20125;-59
2023/03/18 12:27:13;;;;;;;0.55;0.40;;;13.20;99.90;;;;;;5007259;28;20042;-58
2023/03/18 12:30:05;;;;;;;0.73;0.45;;;13.30;99.90;;;;;;5001496;28;20120;-58
2023/03/18 12:32:45;;;;;;;1.45;0.60;;;13.40;99.90;;;;;;5017042;28;20049;-58
2023/03/18 12:35:14;;;;;;;4.25;0.50;;;13.40;99.90;;;;;;5005515;28;20053;-54
2023/03/18 12:37:56;;;;;;;5.18;0.60;;;13.50;99.90;;;;;;5011639;28;20081;-58
2023/03/18 12:40:54;;;;;;;0.85;0.60;;;13.50;99.90;;;;;;5020355;28;20629;-58
2023/03/18 12:43:30;;;;;;;0.43;0.43;;;13.50;99.90;;;;;;5018621;28;20412;-61
2023/03/18 12:46:22;;;;;;;2.17;0.68;;;13.60;99.90;;;;;;5008019;28;20069;-59
2023/03/18 12:49:00;;;;;;;1.13;0.60;;;13.70;99.90;;;;;;5005179;28;20138;-58
2023/03/18 12:51:29;;;;;;;3.35;1.95;;;13.70;99.90;;;;;;4995020;28;20154;-60
2023/03/18 12:53:57;;;;;;;2.60;0.75;;;13.70;99.90;;;;;;4996125;28;20050;-58
2023/03/18 12:56:28;;;;;;;1.95;0.93;;;13.90;99.90;;;;;;5008959;28;20361;-60
2023/03/18 12:59:15;;;;;;;1.15;0.57;;;14.10;99.90;;;;;;5004725;28;20104;-59
2023/03/18 13:02:05;;;;;;;5.15;0.90;;;14.10;99.90;;;;;;4993608;28;20091;-56